sensor_id;sensor_type;location;lat;lon;timestamp;P1;durP1;ratioP1;P2;durP2;ratioP2
24084;SDS011;12268;52.110;5.548;2022-10-31T00:01:21;16.77;;;10.55;;
24084;SDS011;12268;52.110;5.548;2022-10-31T00:03:52;18.08;;;10.75;;
24084;SDS011;12268;52.110;5.548;2022-10-31T00:06:18;19.73;;;11.07;;
24084;SDS011;12268;52.110;5.548;2022-10-31T00:08:47;19.30;;;11.43;;
24084;SDS011;12268;52.110;5.548;2022-10-31T00:11:20;17.20;;;11.35;;
24084;SDS011;12268;52.110;5.548;2022-10-31T00:13:46;17.75;;;11.18;;
24084;SDS011;12268;52.110;5.548;2022-10-31T00:16:19;25.40;;;11.77;;
24084;SDS011;12268;52.110;5.548;2022-10-31T00:18:53;22.27;;;11.52;;
24084;SDS011;12268;52.110;5.548;2022-10-31T11:33:28;26.52;;;13.25;;
24084;SDS011;12268;52.110;5.548;2022-10-31T11:35:57;29.48;;;13.45;;
24084;SDS011;12268;52.110;5.548;2022-10-31T11:38:28;29.77;;;14.40;;
24084;SDS011;12268;52.110;5.548;2022-10-31T11:40:59;25.92;;;14.23;;
24084;SDS011;12268;52.110;5.548;2022-10-31T11:43:35;27.02;;;14.40;;
24084;SDS011;12268;52.110;5.548;2022-10-31T11:46:11;25.83;;;14.30;;
24084;SDS011;12268;52.110;5.548;2022-10-31T11:48:40;23.50;;;13.48;;
24084;SDS011;12268;52.110;5.548;2022-10-31T11:51:12;25.77;;;13.43;;
24084;SDS011;12268;52.110;5.548;2022-10-31T11:53:50;25.65;;;13.70;;
24084;SDS011;12268;52.110;5.548;2022-10-31T11:56:17;28.35;;;14.27;;
24084;SDS011;12268;52.110;5.548;2022-10-31T11:58:43;28.30;;;14.60;;
24084;SDS011;12268;52.110;5.548;2022-10-31T12:01:24;26.90;;;13.93;;
24084;SDS011;12268;52.110;5.548;2022-10-31T12:04:02;26.65;;;14.63;;
24084;SDS011;12268;52.110;5.548;2022-10-31T12:06:38;25.23;;;13.88;;
24084;SDS011;12268;52.110;5.548;2022-10-31T12:09:26;24.75;;;14.18;;
24084;SDS011;12268;52.110;5.548;2022-10-31T12:17:10;29.95;;;15.35;;
24084;SDS011;12268;52.110;5.548;2022-10-31T12:25:29;31.13;;;15.80;;
24084;SDS011;12268;52.110;5.548;2022-10-31T12:30:51;34.90;;;17.40;;
24084;SDS011;12268;52.110;5.548;2022-10-31T12:33:34;33.17;;;17.58;;
24084;SDS011;12268;52.110;5.548;2022-10-31T12:42:30;31.77;;;16.95;;
24084;SDS011;12268;52.110;5.548;2022-10-31T12:53:13;39.40;;;19.48;;
24084;SDS011;12268;52.110;5.548;2022-10-31T13:01:38;41.45;;;21.23;;
24084;SDS011;12268;52.110;5.548;2022-10-31T13:04:35;39.55;;;20.08;;
24084;SDS011;12268;52.110;5.548;2022-10-31T13:07:15;40.38;;;22.30;;
24084;SDS011;12268;52.110;5.548;2022-10-31T13:09:56;37.88;;;19.90;;
24084;SDS011;12268;52.110;5.548;2022-10-31T13:12:23;42.65;;;20.70;;
24084;SDS011;12268;52.110;5.548;2022-10-31T13:14:51;37.33;;;19.73;;
24084;SDS011;12268;52.110;5.548;2022-10-31T13:23:10;38.45;;;20.92;;
24084;SDS011;12268;52.110;5.548;2022-10-31T13:25:47;37.67;;;19.17;;
24084;SDS011;12268;52.110;5.548;2022-10-31T13:28:24;37.75;;;20.40;;
24084;SDS011;12268;52.110;5.548;2022-10-31T13:31:08;41.97;;;20.52;;
24084;SDS011;12268;52.110;5.548;2022-10-31T13:38:58;38.25;;;20.30;;
24084;SDS011;12268;52.110;5.548;2022-10-31T13:41:49;39.05;;;21.00;;
24084;SDS011;12268;52.110;5.548;2022-10-31T13:46:55;45.58;;;19.85;;
24084;SDS011;12268;52.110;5.548;2022-10-31T13:49:23;36.50;;;19.90;;
24084;SDS011;12268;52.110;5.548;2022-10-31T13:51:51;32.58;;;18.40;;
24084;SDS011;12268;52.110;5.548;2022-10-31T13:54:22;36.78;;;19.33;;
24084;SDS011;12268;52.110;5.548;2022-10-31T13:56:58;38.30;;;20.08;;
24084;SDS011;12268;52.110;5.548;2022-10-31T13:59:25;37.00;;;20.30;;
24084;SDS011;12268;52.110;5.548;2022-10-31T14:01:54;40.53;;;19.48;;
24084;SDS011;12268;52.110;5.548;2022-10-31T14:04:25;33.50;;;19.08;;
24084;SDS011;12268;52.110;5.548;2022-10-31T14:06:55;39.15;;;19.02;;
24084;SDS011;12268;52.110;5.548;2022-10-31T14:12:24;37.85;;;20.17;;
24084;SDS011;12268;52.110;5.548;2022-10-31T14:15:02;35.63;;;20.00;;
24084;SDS011;12268;52.110;5.548;2022-10-31T14:17:56;36.55;;;20.15;;
24084;SDS011;12268;52.110;5.548;2022-10-31T14:20:26;36.67;;;18.83;;
24084;SDS011;12268;52.110;5.548;2022-10-31T14:22:56;41.15;;;20.02;;
24084;SDS011;12268;52.110;5.548;2022-10-31T14:27:53;39.40;;;20.02;;
24084;SDS011;12268;52.110;5.548;2022-10-31T14:30:20;37.25;;;19.75;;
24084;SDS011;12268;52.110;5.548;2022-10-31T14:32:52;44.17;;;20.05;;
24084;SDS011;12268;52.110;5.548;2022-10-31T14:35:23;37.47;;;19.92;;
24084;SDS011;12268;52.110;5.548;2022-10-31T14:40:22;36.15;;;20.40;;
24084;SDS011;12268;52.110;5.548;2022-10-31T14:51:35;35.30;;;18.05;;
24084;SDS011;12268;52.110;5.548;2022-10-31T14:54:05;35.97;;;18.63;;
24084;SDS011;12268;52.110;5.548;2022-10-31T14:56:33;34.92;;;17.85;;
24084;SDS011;12268;52.110;5.548;2022-10-31T14:59:01;41.13;;;19.33;;
24084;SDS011;12268;52.110;5.548;2022-10-31T15:01:32;34.43;;;18.57;;
24084;SDS011;12268;52.110;5.548;2022-10-31T15:04:18;43.08;;;18.00;;
24084;SDS011;12268;52.110;5.548;2022-10-31T15:06:50;32.70;;;17.45;;
24084;SDS011;12268;52.110;5.548;2022-10-31T15:09:25;40.35;;;19.27;;
24084;SDS011;12268;52.110;5.548;2022-10-31T15:11:57;38.63;;;18.45;;
24084;SDS011;12268;52.110;5.548;2022-10-31T15:14:25;36.80;;;17.48;;
24084;SDS011;12268;52.110;5.548;2022-10-31T15:16:52;32.45;;;18.60;;
24084;SDS011;12268;52.110;5.548;2022-10-31T15:19:23;35.83;;;18.23;;
24084;SDS011;12268;52.110;5.548;2022-10-31T15:21:51;36.75;;;18.25;;
24084;SDS011;12268;52.110;5.548;2022-10-31T15:24:18;40.65;;;20.13;;
24084;SDS011;12268;52.110;5.548;2022-10-31T15:26:47;38.30;;;18.50;;
24084;SDS011;12268;52.110;5.548;2022-10-31T15:29:16;36.30;;;19.40;;
24084;SDS011;12268;52.110;5.548;2022-10-31T15:31:51;39.58;;;17.70;;
24084;SDS011;12268;52.110;5.548;2022-10-31T15:34:26;37.58;;;19.67;;
24084;SDS011;12268;52.110;5.548;2022-10-31T15:36:59;39.22;;;18.58;;
24084;SDS011;12268;52.110;5.548;2022-10-31T15:39:25;37.42;;;17.60;;
24084;SDS011;12268;52.110;5.548;2022-10-31T15:41:53;37.22;;;16.88;;
24084;SDS011;12268;52.110;5.548;2022-10-31T15:44:30;35.03;;;19.40;;
24084;SDS011;12268;52.110;5.548;2022-10-31T15:47:18;33.50;;;17.85;;
24084;SDS011;12268;52.110;5.548;2022-10-31T15:49:53;40.67;;;17.33;;
24084;SDS011;12268;52.110;5.548;2022-10-31T15:54:53;29.77;;;16.25;;
24084;SDS011;12268;52.110;5.548;2022-10-31T15:57:22;34.42;;;17.65;;
24084;SDS011;12268;52.110;5.548;2022-10-31T15:59:49;32.50;;;16.88;;
24084;SDS011;12268;52.110;5.548;2022-10-31T16:02:18;36.83;;;17.70;;
24084;SDS011;12268;52.110;5.548;2022-10-31T16:04:50;36.15;;;17.20;;
24084;SDS011;12268;52.110;5.548;2022-10-31T16:07:19;36.05;;;17.10;;
24084;SDS011;12268;52.110;5.548;2022-10-31T16:09:52;32.85;;;17.45;;
24084;SDS011;12268;52.110;5.548;2022-10-31T16:12:33;36.75;;;17.85;;
24084;SDS011;12268;52.110;5.548;2022-10-31T16:15:01;35.80;;;17.13;;
24084;SDS011;12268;52.110;5.548;2022-10-31T16:17:29;32.25;;;16.85;;
24084;SDS011;12268;52.110;5.548;2022-10-31T16:20:04;37.40;;;17.65;;
24084;SDS011;12268;52.110;5.548;2022-10-31T16:22:34;35.65;;;16.98;;
24084;SDS011;12268;52.110;5.548;2022-10-31T16:25:03;36.63;;;17.88;;
24084;SDS011;12268;52.110;5.548;2022-10-31T16:27:37;44.60;;;22.35;;
24084;SDS011;12268;52.110;5.548;2022-10-31T16:33:00;41.00;;;19.70;;
24084;SDS011;12268;52.110;5.548;2022-10-31T16:35:27;39.45;;;18.52;;
24084;SDS011;12268;52.110;5.548;2022-10-31T16:40:23;39.63;;;18.15;;
24084;SDS011;12268;52.110;5.548;2022-10-31T16:42:49;38.25;;;19.63;;
24084;SDS011;12268;52.110;5.548;2022-10-31T16:45:25;44.22;;;21.42;;
24084;SDS011;12268;52.110;5.548;2022-10-31T16:47:52;37.67;;;19.38;;
24084;SDS011;12268;52.110;5.548;2022-10-31T16:50:20;37.33;;;20.23;;
24084;SDS011;12268;52.110;5.548;2022-10-31T16:52:47;39.45;;;20.13;;
24084;SDS011;12268;52.110;5.548;2022-10-31T16:55:14;42.63;;;19.83;;
24084;SDS011;12268;52.110;5.548;2022-10-31T16:57:41;41.13;;;18.80;;
24084;SDS011;12268;52.110;5.548;2022-10-31T17:00:12;39.00;;;19.60;;
24084;SDS011;12268;52.110;5.548;2022-10-31T17:02:40;40.17;;;19.23;;
24084;SDS011;12268;52.110;5.548;2022-10-31T17:05:08;48.55;;;22.52;;
24084;SDS011;12268;52.110;5.548;2022-10-31T17:07:36;45.83;;;21.40;;
24084;SDS011;12268;52.110;5.548;2022-10-31T17:10:01;50.20;;;21.77;;
24084;SDS011;12268;52.110;5.548;2022-10-31T17:12:27;43.83;;;22.30;;
24084;SDS011;12268;52.110;5.548;2022-10-31T17:14:53;44.70;;;20.77;;
24084;SDS011;12268;52.110;5.548;2022-10-31T17:17:18;47.17;;;21.70;;
24084;SDS011;12268;52.110;5.548;2022-10-31T17:19:44;48.53;;;22.08;;
24084;SDS011;12268;52.110;5.548;2022-10-31T17:22:12;57.33;;;25.70;;
24084;SDS011;12268;52.110;5.548;2022-10-31T17:24:39;56.78;;;26.83;;
24084;SDS011;12268;52.110;5.548;2022-10-31T17:27:05;59.08;;;25.55;;
24084;SDS011;12268;52.110;5.548;2022-10-31T17:29:31;76.50;;;29.90;;
24084;SDS011;12268;52.110;5.548;2022-10-31T17:31:57;52.88;;;22.27;;
24084;SDS011;12268;52.110;5.548;2022-10-31T17:34:23;41.38;;;22.00;;
24084;SDS011;12268;52.110;5.548;2022-10-31T17:36:50;45.75;;;21.83;;
24084;SDS011;12268;52.110;5.548;2022-10-31T17:39:16;44.15;;;23.20;;
24084;SDS011;12268;52.110;5.548;2022-10-31T17:41:43;51.53;;;27.15;;
24084;SDS011;12268;52.110;5.548;2022-10-31T17:44:11;41.25;;;22.65;;
24084;SDS011;12268;52.110;5.548;2022-10-31T17:46:37;47.08;;;23.15;;
24084;SDS011;12268;52.110;5.548;2022-10-31T17:49:03;47.88;;;24.10;;
24084;SDS011;12268;52.110;5.548;2022-10-31T17:51:31;44.80;;;21.63;;
24084;SDS011;12268;52.110;5.548;2022-10-31T17:53:57;44.33;;;21.30;;
24084;SDS011;12268;52.110;5.548;2022-10-31T17:56:23;47.22;;;23.05;;
24084;SDS011;12268;52.110;5.548;2022-10-31T17:58:49;48.20;;;22.40;;
24084;SDS011;12268;52.110;5.548;2022-10-31T18:01:15;49.95;;;23.30;;
24084;SDS011;12268;52.110;5.548;2022-10-31T18:03:41;43.55;;;21.63;;
24084;SDS011;12268;52.110;5.548;2022-10-31T18:06:07;43.58;;;21.42;;
24084;SDS011;12268;52.110;5.548;2022-10-31T18:08:35;41.33;;;20.13;;
24084;SDS011;12268;52.110;5.548;2022-10-31T18:11:06;39.53;;;21.45;;
24084;SDS011;12268;52.110;5.548;2022-10-31T18:13:34;46.00;;;21.33;;
24084;SDS011;12268;52.110;5.548;2022-10-31T18:16:00;39.08;;;19.33;;
24084;SDS011;12268;52.110;5.548;2022-10-31T18:18:26;44.75;;;20.17;;
24084;SDS011;12268;52.110;5.548;2022-10-31T18:20:51;40.60;;;21.27;;
24084;SDS011;12268;52.110;5.548;2022-10-31T18:23:20;40.70;;;20.00;;
24084;SDS011;12268;52.110;5.548;2022-10-31T18:25:46;44.28;;;20.33;;
24084;SDS011;12268;52.110;5.548;2022-10-31T18:28:11;48.78;;;20.90;;
24084;SDS011;12268;52.110;5.548;2022-10-31T18:30:40;40.95;;;19.73;;
24084;SDS011;12268;52.110;5.548;2022-10-31T18:33:06;45.08;;;18.95;;
24084;SDS011;12268;52.110;5.548;2022-10-31T18:35:34;36.90;;;19.08;;
24084;SDS011;12268;52.110;5.548;2022-10-31T18:38:03;50.13;;;22.30;;
24084;SDS011;12268;52.110;5.548;2022-10-31T18:40:30;39.60;;;19.83;;
24084;SDS011;12268;52.110;5.548;2022-10-31T18:42:56;42.22;;;20.42;;
24084;SDS011;12268;52.110;5.548;2022-10-31T18:45:22;42.00;;;19.70;;
24084;SDS011;12268;52.110;5.548;2022-10-31T18:47:49;36.88;;;19.65;;
24084;SDS011;12268;52.110;5.548;2022-10-31T18:50:15;40.25;;;19.58;;
24084;SDS011;12268;52.110;5.548;2022-10-31T18:52:41;39.40;;;19.33;;
24084;SDS011;12268;52.110;5.548;2022-10-31T18:55:06;38.05;;;17.85;;
24084;SDS011;12268;52.110;5.548;2022-10-31T18:57:32;40.53;;;18.38;;
24084;SDS011;12268;52.110;5.548;2022-10-31T18:59:58;33.40;;;17.50;;
24084;SDS011;12268;52.110;5.548;2022-10-31T19:02:23;40.55;;;17.23;;
24084;SDS011;12268;52.110;5.548;2022-10-31T19:04:49;38.47;;;17.73;;
24084;SDS011;12268;52.110;5.548;2022-10-31T19:07:14;36.38;;;18.02;;
24084;SDS011;12268;52.110;5.548;2022-10-31T19:09:40;41.45;;;17.20;;
24084;SDS011;12268;52.110;5.548;2022-10-31T19:12:05;33.05;;;16.35;;
24084;SDS011;12268;52.110;5.548;2022-10-31T19:14:31;37.38;;;15.38;;
24084;SDS011;12268;52.110;5.548;2022-10-31T19:16:56;33.88;;;14.93;;
24084;SDS011;12268;52.110;5.548;2022-10-31T19:19:22;33.33;;;15.55;;
24084;SDS011;12268;52.110;5.548;2022-10-31T19:21:47;28.73;;;14.52;;
24084;SDS011;12268;52.110;5.548;2022-10-31T19:24:13;27.88;;;14.45;;
24084;SDS011;12268;52.110;5.548;2022-10-31T19:26:38;29.90;;;15.50;;
24084;SDS011;12268;52.110;5.548;2022-10-31T19:29:04;29.38;;;13.98;;
24084;SDS011;12268;52.110;5.548;2022-10-31T19:31:29;25.70;;;12.57;;
24084;SDS011;12268;52.110;5.548;2022-10-31T19:33:55;27.17;;;12.18;;
24084;SDS011;12268;52.110;5.548;2022-10-31T19:36:21;25.08;;;12.40;;
24084;SDS011;12268;52.110;5.548;2022-10-31T19:38:47;23.95;;;11.57;;
24084;SDS011;12268;52.110;5.548;2022-10-31T19:41:15;21.20;;;11.85;;
24084;SDS011;12268;52.110;5.548;2022-10-31T19:43:46;20.00;;;10.90;;
24084;SDS011;12268;52.110;5.548;2022-10-31T19:46:12;20.55;;;11.40;;
24084;SDS011;12268;52.110;5.548;2022-10-31T19:48:38;18.15;;;10.35;;
24084;SDS011;12268;52.110;5.548;2022-10-31T19:51:06;20.13;;;11.63;;
24084;SDS011;12268;52.110;5.548;2022-10-31T19:53:33;19.00;;;10.40;;
24084;SDS011;12268;52.110;5.548;2022-10-31T19:56:00;23.08;;;10.73;;
24084;SDS011;12268;52.110;5.548;2022-10-31T19:58:25;24.45;;;10.68;;
24084;SDS011;12268;52.110;5.548;2022-10-31T20:00:51;20.88;;;10.70;;
24084;SDS011;12268;52.110;5.548;2022-10-31T20:03:17;21.27;;;11.18;;
24084;SDS011;12268;52.110;5.548;2022-10-31T20:05:43;23.30;;;10.75;;
24084;SDS011;12268;52.110;5.548;2022-10-31T20:08:17;19.50;;;10.25;;
24084;SDS011;12268;52.110;5.548;2022-10-31T20:10:57;23.58;;;9.65;;
24084;SDS011;12268;52.110;5.548;2022-10-31T20:13:26;15.43;;;9.00;;
24084;SDS011;12268;52.110;5.548;2022-10-31T20:15:56;18.25;;;9.50;;
24084;SDS011;12268;52.110;5.548;2022-10-31T20:18:23;19.85;;;9.68;;
24084;SDS011;12268;52.110;5.548;2022-10-31T20:20:49;18.40;;;9.00;;
24084;SDS011;12268;52.110;5.548;2022-10-31T20:23:16;19.75;;;9.25;;
24084;SDS011;12268;52.110;5.548;2022-10-31T20:25:45;20.38;;;8.93;;
24084;SDS011;12268;52.110;5.548;2022-10-31T20:28:12;14.48;;;8.73;;
24084;SDS011;12268;52.110;5.548;2022-10-31T20:30:38;23.63;;;8.40;;
24084;SDS011;12268;52.110;5.548;2022-10-31T20:33:03;17.48;;;8.93;;
24084;SDS011;12268;52.110;5.548;2022-10-31T20:35:29;21.52;;;8.93;;
24084;SDS011;12268;52.110;5.548;2022-10-31T20:37:54;16.15;;;8.27;;
24084;SDS011;12268;52.110;5.548;2022-10-31T20:40:20;15.52;;;8.15;;
24084;SDS011;12268;52.110;5.548;2022-10-31T20:42:46;19.33;;;8.60;;
24084;SDS011;12268;52.110;5.548;2022-10-31T20:45:12;16.70;;;8.88;;
24084;SDS011;12268;52.110;5.548;2022-10-31T20:47:37;18.27;;;7.78;;
24084;SDS011;12268;52.110;5.548;2022-10-31T20:50:03;18.50;;;8.50;;
24084;SDS011;12268;52.110;5.548;2022-10-31T20:52:29;15.30;;;7.88;;
24084;SDS011;12268;52.110;5.548;2022-10-31T20:54:54;15.48;;;7.93;;
24084;SDS011;12268;52.110;5.548;2022-10-31T20:57:20;16.08;;;8.02;;
24084;SDS011;12268;52.110;5.548;2022-10-31T20:59:45;15.05;;;7.10;;
24084;SDS011;12268;52.110;5.548;2022-10-31T21:02:11;17.15;;;7.55;;
24084;SDS011;12268;52.110;5.548;2022-10-31T21:04:36;11.40;;;7.68;;
24084;SDS011;12268;52.110;5.548;2022-10-31T21:07:02;13.88;;;7.00;;
24084;SDS011;12268;52.110;5.548;2022-10-31T21:09:27;19.67;;;7.25;;
24084;SDS011;12268;52.110;5.548;2022-10-31T21:11:53;15.13;;;7.47;;
24084;SDS011;12268;52.110;5.548;2022-10-31T21:14:19;15.88;;;6.85;;
24084;SDS011;12268;52.110;5.548;2022-10-31T21:16:44;17.15;;;7.72;;
24084;SDS011;12268;52.110;5.548;2022-10-31T21:19:10;15.30;;;7.55;;
24084;SDS011;12268;52.110;5.548;2022-10-31T21:21:36;16.13;;;6.93;;
24084;SDS011;12268;52.110;5.548;2022-10-31T21:24:04;14.63;;;6.50;;
24084;SDS011;12268;52.110;5.548;2022-10-31T21:26:35;12.75;;;6.18;;
24084;SDS011;12268;52.110;5.548;2022-10-31T21:29:03;10.68;;;6.85;;
24084;SDS011;12268;52.110;5.548;2022-10-31T21:31:29;13.40;;;6.07;;
24084;SDS011;12268;52.110;5.548;2022-10-31T21:33:55;13.85;;;6.15;;
24084;SDS011;12268;52.110;5.548;2022-10-31T21:36:21;10.55;;;5.60;;
24084;SDS011;12268;52.110;5.548;2022-10-31T21:38:50;14.32;;;6.07;;
24084;SDS011;12268;52.110;5.548;2022-10-31T21:41:17;12.07;;;6.30;;
24084;SDS011;12268;52.110;5.548;2022-10-31T21:43:44;16.67;;;6.38;;
24084;SDS011;12268;52.110;5.548;2022-10-31T21:46:15;13.57;;;6.55;;
24084;SDS011;12268;52.110;5.548;2022-10-31T21:48:43;11.02;;;5.63;;
24084;SDS011;12268;52.110;5.548;2022-10-31T21:51:10;11.93;;;5.90;;
24084;SDS011;12268;52.110;5.548;2022-10-31T21:53:40;14.07;;;6.28;;
24084;SDS011;12268;52.110;5.548;2022-10-31T21:56:24;17.58;;;6.20;;
24084;SDS011;12268;52.110;5.548;2022-10-31T21:58:50;13.80;;;6.15;;
24084;SDS011;12268;52.110;5.548;2022-10-31T22:01:17;13.00;;;5.97;;
24084;SDS011;12268;52.110;5.548;2022-10-31T22:03:42;12.07;;;5.95;;
24084;SDS011;12268;52.110;5.548;2022-10-31T22:06:09;13.75;;;5.97;;
24084;SDS011;12268;52.110;5.548;2022-10-31T22:08:35;14.75;;;6.18;;
24084;SDS011;12268;52.110;5.548;2022-10-31T22:11:01;15.35;;;6.50;;
24084;SDS011;12268;52.110;5.548;2022-10-31T22:13:32;10.40;;;5.95;;
24084;SDS011;12268;52.110;5.548;2022-10-31T22:15:59;12.15;;;5.88;;
24084;SDS011;12268;52.110;5.548;2022-10-31T22:18:26;12.55;;;5.80;;
24084;SDS011;12268;52.110;5.548;2022-10-31T22:20:52;10.13;;;5.75;;
24084;SDS011;12268;52.110;5.548;2022-10-31T22:23:17;12.48;;;5.68;;
24084;SDS011;12268;52.110;5.548;2022-10-31T22:25:43;14.95;;;6.10;;
24084;SDS011;12268;52.110;5.548;2022-10-31T22:28:08;13.13;;;6.38;;
24084;SDS011;12268;52.110;5.548;2022-10-31T22:30:36;12.65;;;5.93;;
24084;SDS011;12268;52.110;5.548;2022-10-31T22:33:02;14.27;;;5.97;;
24084;SDS011;12268;52.110;5.548;2022-10-31T22:35:28;10.98;;;5.80;;
24084;SDS011;12268;52.110;5.548;2022-10-31T22:37:53;15.40;;;6.18;;
24084;SDS011;12268;52.110;5.548;2022-10-31T22:40:19;13.32;;;5.88;;
24084;SDS011;12268;52.110;5.548;2022-10-31T22:42:44;13.60;;;5.85;;
24084;SDS011;12268;52.110;5.548;2022-10-31T22:45:10;16.55;;;5.70;;
24084;SDS011;12268;52.110;5.548;2022-10-31T22:47:35;14.02;;;6.03;;
24084;SDS011;12268;52.110;5.548;2022-10-31T22:50:01;14.95;;;5.90;;
24084;SDS011;12268;52.110;5.548;2022-10-31T22:52:26;14.88;;;5.38;;
24084;SDS011;12268;52.110;5.548;2022-10-31T22:54:52;14.30;;;6.88;;
24084;SDS011;12268;52.110;5.548;2022-10-31T22:57:17;11.52;;;5.95;;
24084;SDS011;12268;52.110;5.548;2022-10-31T22:59:43;13.90;;;6.20;;
24084;SDS011;12268;52.110;5.548;2022-10-31T23:02:08;12.50;;;6.05;;
24084;SDS011;12268;52.110;5.548;2022-10-31T23:04:34;15.10;;;5.80;;
24084;SDS011;12268;52.110;5.548;2022-10-31T23:06:59;14.60;;;6.32;;
24084;SDS011;12268;52.110;5.548;2022-10-31T23:09:25;15.85;;;6.50;;
24084;SDS011;12268;52.110;5.548;2022-10-31T23:11:50;11.25;;;6.32;;
24084;SDS011;12268;52.110;5.548;2022-10-31T23:14:17;10.57;;;5.88;;
24084;SDS011;12268;52.110;5.548;2022-10-31T23:19:22;15.38;;;6.40;;
24084;SDS011;12268;52.110;5.548;2022-10-31T23:21:53;15.43;;;7.15;;
24084;SDS011;12268;52.110;5.548;2022-10-31T23:24:24;11.55;;;6.72;;
24084;SDS011;12268;52.110;5.548;2022-10-31T23:26:56;15.85;;;6.20;;
24084;SDS011;12268;52.110;5.548;2022-10-31T23:32:03;18.98;;;7.20;;
24084;SDS011;12268;52.110;5.548;2022-10-31T23:34:30;12.77;;;6.85;;
24084;SDS011;12268;52.110;5.548;2022-10-31T23:36:56;14.32;;;6.85;;
24084;SDS011;12268;52.110;5.548;2022-10-31T23:39:21;15.07;;;7.28;;
24084;SDS011;12268;52.110;5.548;2022-10-31T23:41:47;13.70;;;6.50;;
24084;SDS011;12268;52.110;5.548;2022-10-31T23:44:13;17.55;;;7.22;;
24084;SDS011;12268;52.110;5.548;2022-10-31T23:46:38;14.75;;;7.80;;
24084;SDS011;12268;52.110;5.548;2022-10-31T23:49:04;15.07;;;7.20;;
24084;SDS011;12268;52.110;5.548;2022-10-31T23:51:29;13.07;;;7.82;;
24084;SDS011;12268;52.110;5.548;2022-10-31T23:53:55;13.50;;;7.30;;
24084;SDS011;12268;52.110;5.548;2022-10-31T23:56:20;14.88;;;6.50;;
24084;SDS011;12268;52.110;5.548;2022-10-31T23:58:46;15.45;;;7.82;;
